Airfield :
LOGIN :

Register | Disclaimer

   EN    FR    IT 

 










Legend :    VFR   Marginal VFR   IFR   Intensive IFR   Very Intensive IFR
Visi :
Ceiling :
>= 8 km
>= 3000ft
5 to 8 km
1000 to 3000 ft
1500m to 5 km
500 to 1000 ft
800 to 1500m
200 to 500 ft
< 800m
< 200 ft
Symbols :   Thunderstorms  Fog  Heavy snow  Heavy precipitations  Wind > 20 kt
SIGMETs :     Misc.  Thunderstorms  Icing  Turbulence  Mountain Waves  Volcanic Ashes







- Airport Elevation : 256 ft
- IATA code : KUN


EYKA - Kaunas

CURRENT METAR :
  • 181920Z 26008KT 4400 -SN BR OVC025 M03/M06 Q1023 R08/290095

EXPIRED METARs :
  • 181850Z 26008KT 220V280 2700 SN BR SCT025 OVC031 M03/M05 Q1023 R08/290095
  • 181832Z 25008KT 1700 SN BR SCT016 BKN021 OVC027 M03/M05 Q1023 R08/290095
  • 181820Z 25007KT 4900 -SN BR SCT020 BKN028 OVC035 M03/M05 Q1024 R08/290095
  • 181757Z 24006KT 2200 SN BR BKN024 OVC037 M03/M05 Q1024 R08/290095
  • 181750Z 24005KT 3500 -SN BR SCT024 BKN045 OVC056 M03/M05 Q1024 R08/290095
  • 181720Z 25005KT 1900 SN BKN027 OVC048 M03/M06 Q1024 R08/290095
  • 181650Z 26006KT 3400 -SN BR OVC028 M03/M06 Q1024 R08/290095

TAF TAF EYKA
Valid from the 18 at 18:00 until the 19 at 18:00 UTC


181700Z 1818/1918 VRB04KT 6000 BKN020
TEMPO 1818/1823 1500 SN BR SCT005 BKN010
BECMG 1823/1824 BKN005
TEMPO 1900/1908 1000 BR BKN003
No reported NOTAMs for that airfield.



MET'MAP, your aeronautical weather chart ! - Copyright ORBIFLY December 2007 - Disclaimer

ORBIFLY MET'MAP TEAM :

Programming & Development : Alexandra Zaïnal
Concept & Development : Baudouin d'Aumeries
Co-Development & Prog : Marc-Olivier Méhu
Technical & hardware support : Manuel Goepfert

Contact : metmap@orbifly.com




SOURCES & CREDITS :

   NOAA